Time;durP1;ratioP1;P1;durP2;ratioP2;P2;SDS_P1;SDS_P2;PMS_P1;PMS_P2;Temp;Humidity;BMP_temperature;BMP_pressure;BME280_temperature;BME280_humidity;BME280_pressure;Samples;Min_cycle;Max_cycle;Signal;HPM_P1;HPM_P2
2022/05/08 00:02:04;;;;;;;43.65;28.42;;;11.50;99.90;;;;;;4995821;28;20029;-75
2022/05/08 00:04:29;;;;;;;45.45;26.98;;;11.50;99.90;;;;;;5013417;28;20029;-82
2022/05/08 00:06:55;;;;;;;35.00;26.27;;;11.50;99.90;;;;;;5013497;28;20084;-75
2022/05/08 00:09:20;;;;;;;37.13;25.45;;;11.50;99.90;;;;;;5013541;28;20026;-83
2022/05/08 00:11:46;;;;;;;45.38;29.70;;;11.50;99.90;;;;;;4995399;28;20061;-83
2022/05/08 00:14:11;;;;;;;45.05;27.65;;;11.50;99.90;;;;;;4995546;28;20160;-82
2022/05/08 00:16:37;;;;;;;45.33;27.13;;;11.50;99.90;;;;;;5013375;28;20113;-82
2022/05/08 00:19:02;;;;;;;36.70;25.58;;;11.40;99.90;;;;;;4995747;28;20022;-76
2022/05/08 00:21:28;;;;;;;34.72;25.02;;;11.40;99.90;;;;;;5013268;28;20087;-83
2022/05/08 00:23:53;;;;;;;31.45;24.10;;;11.40;99.90;;;;;;4995780;28;20037;-76
2022/05/08 00:26:19;;;;;;;37.75;26.55;;;11.40;99.90;;;;;;4995586;28;20022;-82
2022/05/08 00:28:45;;;;;;;34.63;25.67;;;11.40;99.90;;;;;;5016279;28;20040;-76
2022/05/08 00:31:11;;;;;;;45.58;26.33;;;11.40;99.90;;;;;;5002207;28;20060;-81
2022/05/08 00:33:38;;;;;;;32.83;24.17;;;11.40;99.90;;;;;;5019679;28;20077;-81
2022/05/08 00:36:04;;;;;;;39.90;26.90;;;11.40;99.90;;;;;;5019719;28;20022;-82
2022/05/08 00:38:30;;;;;;;41.10;27.05;;;11.30;99.90;;;;;;5019713;28;20032;-83
2022/05/08 00:40:55;;;;;;;36.13;25.92;;;11.30;99.90;;;;;;5001973;28;20124;-83
2022/05/08 00:43:32;;;;;;;37.58;25.23;;;11.20;99.90;;;;;;5019607;28;20038;-82
2022/05/08 00:45:59;;;;;;;36.78;25.02;;;11.20;99.90;;;;;;5002416;28;20404;-74
2022/05/08 00:48:25;;;;;;;39.42;24.83;;;11.20;99.90;;;;;;5019441;28;20137;-74
2022/05/08 00:50:51;;;;;;;34.22;25.10;;;11.20;99.90;;;;;;5019556;28;20061;-74
2022/05/08 00:53:18;;;;;;;35.38;24.55;;;11.20;99.90;;;;;;5019477;28;20030;-82
2022/05/08 00:55:44;;;;;;;37.83;25.60;;;11.20;99.90;;;;;;5001886;28;20052;-74
2022/05/08 00:58:09;;;;;;;38.00;24.75;;;11.10;99.90;;;;;;5001812;28;20484;-74
2022/05/08 01:00:35;;;;;;;38.45;26.13;;;11.00;99.90;;;;;;5019315;28;20065;-74
2022/05/08 01:03:01;;;;;;;37.28;25.10;;;11.00;99.90;;;;;;5019681;28;20072;-81
2022/05/08 01:05:26;;;;;;;38.03;25.45;;;11.00;99.90;;;;;;5002024;28;20026;-74
2022/05/08 01:07:52;;;;;;;42.28;26.40;;;10.90;99.90;;;;;;5019573;28;20030;-82
2022/05/08 01:10:18;;;;;;;36.22;24.67;;;10.90;99.90;;;;;;5002017;28;20044;-74
2022/05/08 01:12:46;;;;;;;36.58;26.05;;;10.80;99.90;;;;;;5019420;28;20529;-82
2022/05/08 01:15:14;;;;;;;38.03;25.95;;;10.80;99.90;;;;;;5019551;28;20098;-77
2022/05/08 01:17:40;;;;;;;36.08;26.45;;;10.70;99.90;;;;;;5002054;28;20391;-74
2022/05/08 01:20:06;;;;;;;38.60;26.42;;;10.70;99.90;;;;;;5019198;28;20030;-83
2022/05/08 01:22:32;;;;;;;40.65;26.58;;;10.60;99.90;;;;;;5001917;28;20376;-74
2022/05/08 01:25:02;;;;;;;38.67;24.95;;;10.60;99.90;;;;;;5019641;28;20026;-74
2022/05/08 01:27:28;;;;;;;36.33;24.60;;;10.60;99.90;;;;;;5019568;28;20078;-83
2022/05/08 01:29:53;;;;;;;35.20;23.80;;;10.50;99.90;;;;;;5001901;28;20030;-83
2022/05/08 01:32:19;;;;;;;40.67;27.00;;;10.50;99.90;;;;;;5001961;28;20041;-76
2022/05/08 01:34:45;;;;;;;38.47;26.42;;;10.50;99.90;;;;;;5019441;28;20018;-75
2022/05/08 01:37:10;;;;;;;37.83;26.52;;;10.50;99.90;;;;;;5019466;28;20022;-75
2022/05/08 01:39:36;;;;;;;39.47;27.40;;;10.50;99.90;;;;;;5017882;28;20072;-83
2022/05/08 01:42:04;;;;;;;41.50;27.38;;;10.40;99.90;;;;;;4998185;28;20021;-82
2022/05/08 01:44:30;;;;;;;38.28;26.33;;;10.40;99.90;;;;;;4998363;28;20083;-74
2022/05/08 01:49:40;;;;;;;39.38;25.60;;;10.30;99.90;;;;;;5016084;28;20471;-75
2022/05/08 01:52:06;;;;;;;39.55;26.15;;;10.30;99.90;;;;;;5016056;28;20034;-75
2022/05/08 01:54:32;;;;;;;39.25;25.25;;;10.30;99.90;;;;;;5015791;28;20123;-82
2022/05/08 01:56:58;;;;;;;34.92;24.23;;;10.20;99.90;;;;;;5016052;28;20030;-83
2022/05/08 01:59:24;;;;;;;33.25;24.35;;;10.20;99.90;;;;;;5016101;28;20017;-82
2022/05/08 02:01:50;;;;;;;36.03;25.38;;;10.10;99.90;;;;;;5016051;28;20526;-75
2022/05/08 02:04:15;;;;;;;32.60;22.85;;;10.00;99.90;;;;;;4998314;28;20022;-83
2022/05/08 02:06:45;;;;;;;32.15;22.20;;;10.00;99.90;;;;;;4998338;28;20022;-74
2022/05/08 02:09:11;;;;;;;27.65;20.08;;;9.90;99.90;;;;;;4998353;28;20412;-84
2022/05/08 02:11:37;;;;;;;25.17;17.95;;;9.80;99.90;;;;;;5015516;28;20046;-82
2022/05/08 02:14:02;;;;;;;24.70;16.23;;;9.80;99.90;;;;;;5014485;28;20037;-82
2022/05/08 02:16:29;;;;;;;34.05;23.55;;;9.70;99.90;;;;;;5015645;28;20053;-82
2022/05/08 02:18:55;;;;;;;39.50;24.60;;;9.60;99.90;;;;;;4998030;28;20022;-74
2022/05/08 02:21:21;;;;;;;40.38;26.55;;;9.60;99.90;;;;;;5015547;28;20030;-82
2022/05/08 02:23:47;;;;;;;31.42;22.20;;;9.50;99.90;;;;;;5015542;28;20022;-83
2022/05/08 02:26:13;;;;;;;37.70;23.73;;;9.50;99.90;;;;;;4997782;28;20133;-78
2022/05/08 02:28:40;;;;;;;33.13;21.90;;;9.40;99.90;;;;;;5014222;28;20105;-75
2022/05/08 02:31:06;;;;;;;35.03;22.67;;;9.40;99.90;;;;;;5015429;28;20086;-74
2022/05/08 02:33:34;;;;;;;33.85;23.30;;;9.30;99.90;;;;;;5015244;28;20121;-82
2022/05/08 02:36:00;;;;;;;33.58;22.10;;;9.30;99.90;;;;;;4997605;28;20483;-74
2022/05/08 02:38:25;;;;;;;32.92;23.15;;;9.20;99.90;;;;;;5015298;28;20026;-82
2022/05/08 02:40:52;;;;;;;34.05;22.15;;;9.10;99.90;;;;;;5013972;28;20056;-74
2022/05/08 02:43:20;;;;;;;35.50;23.55;;;9.10;99.90;;;;;;5015225;28;20029;-74
2022/05/08 02:45:47;;;;;;;30.15;21.15;;;9.10;99.90;;;;;;5014925;28;20029;-76
2022/05/08 02:48:13;;;;;;;27.90;19.90;;;9.00;99.90;;;;;;5014912;28;20018;-75
2022/05/08 02:50:39;;;;;;;32.35;22.27;;;8.90;99.90;;;;;;5014976;28;20373;-74
2022/05/08 02:53:05;;;;;;;29.52;19.88;;;8.80;99.90;;;;;;5014759;28;20045;-82
2022/05/08 02:58:32;;;;;;;31.63;20.67;;;8.70;99.90;;;;;;5015071;28;20025;-75
2022/05/08 03:00:59;;;;;;;39.13;20.02;;;8.60;99.90;;;;;;5014847;28;20026;-75
2022/05/08 03:03:25;;;;;;;32.10;18.77;;;8.60;99.90;;;;;;5014796;28;20388;-75
2022/05/08 03:05:51;;;;;;;33.15;18.75;;;8.50;99.90;;;;;;4997102;28;20022;-74
2022/05/08 03:08:18;;;;;;;27.45;19.50;;;8.50;99.90;;;;;;5013500;28;20026;-75
2022/05/08 03:13:36;;;;;;;25.00;18.23;;;8.40;99.90;;;;;;5014499;28;20065;-75
2022/05/08 03:16:03;;;;;;;22.45;15.98;;;8.40;99.90;;;;;;5014595;28;20017;-80
2022/05/08 03:18:29;;;;;;;23.30;16.27;;;8.40;99.90;;;;;;4996902;28;20057;-75
2022/05/08 03:20:54;;;;;;;27.45;18.10;;;8.40;99.90;;;;;;5013236;28;20131;-74
2022/05/08 03:23:20;;;;;;;24.10;18.55;;;8.40;99.90;;;;;;5014361;28;20026;-76
2022/05/08 03:25:45;;;;;;;25.08;18.70;;;8.30;99.90;;;;;;5014325;28;20022;-75
2022/05/08 03:28:15;;;;;;;24.35;18.25;;;8.30;99.90;;;;;;4996790;28;20069;-82
2022/05/08 03:30:40;;;;;;;28.35;19.23;;;8.20;99.90;;;;;;4996730;28;20464;-75
2022/05/08 03:33:08;;;;;;;28.27;19.58;;;8.20;99.90;;;;;;4996546;28;20034;-81
2022/05/08 03:35:34;;;;;;;34.22;19.98;;;8.30;99.90;;;;;;5014142;28;20447;-75
2022/05/08 03:38:00;;;;;;;27.40;20.67;;;8.20;99.90;;;;;;5014273;28;20100;-75
2022/05/08 03:40:26;;;;;;;28.25;20.08;;;8.30;99.90;;;;;;5014182;28;20029;-83
2022/05/08 03:42:53;;;;;;;26.20;18.40;;;8.30;99.90;;;;;;4996561;28;20049;-82
2022/05/08 03:45:18;;;;;;;28.95;17.83;;;8.30;99.90;;;;;;4996407;28;20088;-74
2022/05/08 03:47:44;;;;;;;22.45;16.00;;;8.40;99.90;;;;;;4996460;28;20021;-81
2022/05/08 03:50:10;;;;;;;24.15;17.63;;;8.40;99.90;;;;;;4996340;28;20037;-74
2022/05/08 03:52:35;;;;;;;18.15;14.15;;;8.40;99.90;;;;;;5013916;28;20464;-75
2022/05/08 03:55:02;;;;;;;17.15;12.82;;;8.40;99.90;;;;;;5013803;28;20025;-82
2022/05/08 03:57:28;;;;;;;15.52;12.30;;;8.60;99.90;;;;;;5013849;28;20057;-75
2022/05/08 03:59:54;;;;;;;17.77;11.68;;;8.70;99.90;;;;;;5012608;28;20029;-76
2022/05/08 04:02:19;;;;;;;18.33;12.63;;;8.70;99.90;;;;;;5013726;28;20026;-77
2022/05/08 04:04:45;;;;;;;17.23;12.52;;;8.80;99.90;;;;;;5013121;28;20092;-76
2022/05/08 04:07:11;;;;;;;17.50;13.65;;;8.80;99.90;;;;;;4996253;28;20022;-83
2022/05/08 04:09:36;;;;;;;22.20;17.15;;;8.90;99.90;;;;;;4996183;28;20365;-75
2022/05/08 04:12:02;;;;;;;28.70;20.10;;;9.00;99.90;;;;;;4996026;28;20084;-76
2022/05/08 04:14:27;;;;;;;31.30;21.63;;;9.00;99.90;;;;;;5013660;28;20101;-83
2022/05/08 04:16:53;;;;;;;24.75;17.95;;;9.10;99.90;;;;;;5013727;28;20069;-82
2022/05/08 04:19:18;;;;;;;22.73;16.42;;;9.20;99.90;;;;;;4996209;28;20080;-82
2022/05/08 04:21:44;;;;;;;21.70;16.77;;;9.20;99.90;;;;;;4996049;28;20022;-75
2022/05/08 04:24:19;;;;;;;21.08;16.50;;;9.40;99.90;;;;;;5013743;28;20048;-76
2022/05/08 04:26:45;;;;;;;18.13;14.05;;;9.50;99.90;;;;;;5013613;28;20040;-74
2022/05/08 04:29:11;;;;;;;20.98;15.43;;;9.50;99.90;;;;;;4995911;28;20025;-82
2022/05/08 04:31:37;;;;;;;23.00;17.13;;;9.50;99.90;;;;;;5013579;28;20025;-76
2022/05/08 04:34:03;;;;;;;24.70;17.50;;;9.50;99.90;;;;;;5013348;28;20033;-81
2022/05/08 04:36:29;;;;;;;25.65;17.95;;;9.60;99.90;;;;;;5013429;28;20472;-76
2022/05/08 04:38:55;;;;;;;24.88;18.05;;;9.50;99.90;;;;;;5013447;28;20105;-75
2022/05/08 04:41:20;;;;;;;20.35;16.45;;;9.60;99.90;;;;;;5013429;28;20088;-82
2022/05/08 04:43:46;;;;;;;26.50;19.20;;;9.70;99.90;;;;;;5011996;28;20029;-75
2022/05/08 04:46:12;;;;;;;30.13;20.10;;;9.90;99.90;;;;;;5013312;28;20057;-83
2022/05/08 04:48:38;;;;;;;31.48;20.60;;;10.00;99.90;;;;;;5013435;28;20036;-83
2022/05/08 04:51:04;;;;;;;30.08;22.00;;;10.00;99.90;;;;;;5013247;28;20030;-75
2022/05/08 04:53:33;;;;;;;30.52;22.35;;;10.10;99.90;;;;;;5013267;28;20488;-75
2022/05/08 04:55:59;;;;;;;29.83;21.73;;;10.10;99.90;;;;;;4995586;28;20018;-75
2022/05/08 04:58:29;;;;;;;32.67;22.80;;;10.20;99.90;;;;;;5013247;28;20392;-76
2022/05/08 05:00:57;;;;;;;28.83;20.75;;;10.30;99.90;;;;;;5013185;28;20386;-84
2022/05/08 05:03:24;;;;;;;29.83;21.13;;;10.40;99.90;;;;;;5012026;28;20030;-76
2022/05/08 05:05:49;;;;;;;29.85;21.38;;;10.50;99.90;;;;;;5013236;28;20223;-83
2022/05/08 05:08:15;;;;;;;33.08;21.85;;;10.70;99.90;;;;;;5013260;28;20419;-76
2022/05/08 05:10:40;;;;;;;29.95;21.42;;;10.70;99.90;;;;;;4995657;28;20427;-75
2022/05/08 05:13:06;;;;;;;31.92;23.17;;;10.90;99.90;;;;;;5012989;28;20509;-84
2022/05/08 05:15:32;;;;;;;38.50;30.50;;;11.00;99.90;;;;;;5015660;28;20026;-75
2022/05/08 05:18:01;;;;;;;37.10;27.70;;;11.10;99.90;;;;;;5016760;28;20522;-82
2022/05/08 05:20:27;;;;;;;31.63;24.33;;;11.30;99.90;;;;;;5016779;28;20072;-75
2022/05/08 05:22:52;;;;;;;27.98;22.65;;;11.40;99.90;;;;;;5016712;28;20022;-75
2022/05/08 05:25:18;;;;;;;36.80;28.70;;;11.60;99.90;;;;;;5016697;28;20034;-83
2022/05/08 05:27:43;;;;;;;41.33;32.53;;;11.70;99.90;;;;;;5016645;28;20163;-83
2022/05/08 05:30:10;;;;;;;49.67;33.88;;;11.80;99.90;;;;;;5016284;28;20030;-84
2022/05/08 05:32:35;;;;;;;47.05;31.48;;;11.90;99.90;;;;;;5016451;28;20034;-77
2022/05/08 05:35:01;;;;;;;43.22;28.92;;;12.00;99.90;;;;;;5016404;28;20026;-84
2022/05/08 05:37:26;;;;;;;40.03;28.13;;;12.10;99.90;;;;;;5013117;28;20034;-83
2022/05/08 05:39:52;;;;;;;42.97;30.52;;;12.20;99.90;;;;;;5014723;28;20022;-74
2022/05/08 05:42:17;;;;;;;42.65;29.55;;;12.30;99.90;;;;;;5016129;28;20044;-77
2022/05/08 05:44:43;;;;;;;41.30;28.85;;;12.50;99.90;;;;;;5014778;28;20029;-82
2022/05/08 05:49:53;;;;;;;39.05;26.92;;;13.00;99.90;;;;;;5002402;28;20084;-79
2022/05/08 05:52:18;;;;;;;40.00;28.52;;;13.20;99.90;;;;;;4996208;28;20031;-82
2022/05/08 05:54:44;;;;;;;38.05;26.55;;;13.60;99.90;;;;;;4996291;28;20073;-86
2022/05/08 05:57:10;;;;;;;36.30;25.90;;;13.80;99.90;;;;;;5001374;28;20045;-82
2022/05/08 05:59:35;;;;;;;37.38;25.75;;;14.00;99.90;;;;;;4997086;28;20061;-75
2022/05/08 06:02:01;;;;;;;38.15;25.13;;;14.10;99.90;;;;;;4997219;28;20029;-75
2022/05/08 06:04:27;;;;;;;37.90;25.52;;;14.20;99.90;;;;;;5013644;28;20030;-81
2022/05/08 06:06:53;;;;;;;27.85;20.65;;;14.30;99.90;;;;;;5014584;28;20022;-74
2022/05/08 06:09:18;;;;;;;35.63;23.55;;;14.40;99.90;;;;;;4997769;28;20072;-75
2022/05/08 06:11:44;;;;;;;33.15;23.33;;;14.60;99.90;;;;;;5014232;28;20530;-74
2022/05/08 06:14:10;;;;;;;31.27;22.30;;;14.70;97.40;;;;;;4997967;28;20041;-81
2022/05/08 06:16:36;;;;;;;30.85;21.45;;;14.90;93.50;;;;;;4997874;28;20022;-74
2022/05/08 06:19:02;;;;;;;30.42;21.73;;;15.00;90.20;;;;;;4997041;28;20534;-74
2022/05/08 06:21:27;;;;;;;40.03;25.40;;;15.20;89.30;;;;;;4995902;28;20030;-74
2022/05/08 06:23:55;;;;;;;34.78;24.15;;;15.40;88.10;;;;;;5013455;28;20032;-81
2022/05/08 06:26:22;;;;;;;27.15;18.58;;;15.60;85.00;;;;;;5012588;28;20498;-81
2022/05/08 06:28:48;;;;;;;20.85;16.45;;;15.80;78.70;;;;;;5013522;28;20026;-75
2022/05/08 06:31:16;;;;;;;20.08;15.02;;;16.00;74.60;;;;;;4995949;28;20361;-74
2022/05/08 06:33:43;;;;;;;16.40;13.80;;;16.00;72.70;;;;;;4996138;28;20041;-81
2022/05/08 06:36:09;;;;;;;30.23;21.27;;;16.30;74.10;;;;;;5015841;28;20022;-81
2022/05/08 06:38:34;;;;;;;29.33;20.63;;;16.40;75.10;;;;;;5015613;28;20029;-81
2022/05/08 06:41:00;;;;;;;19.80;15.38;;;16.50;72.50;;;;;;5015821;28;20021;-82
2022/05/08 06:43:25;;;;;;;24.55;16.60;;;16.60;71.90;;;;;;5016243;28;20464;-81
2022/05/08 06:45:51;;;;;;;29.42;18.48;;;16.80;71.40;;;;;;4998364;28;20042;-81
2022/05/08 06:48:17;;;;;;;33.38;20.77;;;17.00;71.70;;;;;;5016039;28;20018;-81
2022/05/08 06:50:43;;;;;;;31.02;22.25;;;17.20;69.60;;;;;;5014200;28;20466;-81
2022/05/08 06:53:09;;;;;;;28.00;20.20;;;17.30;70.30;;;;;;4997702;28;20075;-75
2022/05/08 06:55:35;;;;;;;22.63;15.05;;;17.40;70.10;;;;;;4998469;28;20026;-81
2022/05/08 06:58:01;;;;;;;18.88;14.05;;;17.40;67.90;;;;;;5015986;28;20038;-81
2022/05/08 07:03:11;;;;;;;19.73;13.43;;;17.60;67.80;;;;;;5016924;28;20079;-80
2022/05/08 07:05:40;;;;;;;14.35;10.95;;;17.70;67.90;;;;;;5015506;28;20531;-81
2022/05/08 07:08:06;;;;;;;13.85;10.30;;;17.90;65.30;;;;;;4998029;28;20022;-82
2022/05/08 07:10:32;;;;;;;16.13;10.05;;;18.00;63.40;;;;;;5014874;28;20026;-74
2022/05/08 07:12:57;;;;;;;11.45;8.32;;;18.20;62.30;;;;;;5014356;28;20053;-82
2022/05/08 07:15:23;;;;;;;13.77;8.10;;;18.40;61.20;;;;;;5014355;28;20365;-76
2022/05/08 07:17:49;;;;;;;10.63;8.88;;;18.50;58.70;;;;;;4997076;28;20026;-75
2022/05/08 07:20:14;;;;;;;9.10;7.53;;;18.70;59.30;;;;;;5013606;28;20475;-75
2022/05/08 07:22:40;;;;;;;9.68;6.82;;;18.80;57.60;;;;;;5014634;28;20029;-78
2022/05/08 07:25:06;;;;;;;8.85;6.47;;;18.90;57.20;;;;;;5013122;28;20120;-75
2022/05/08 07:27:36;;;;;;;8.13;6.75;;;19.00;55.10;;;;;;4996426;28;20026;-76
2022/05/08 07:30:03;;;;;;;8.50;6.15;;;19.00;53.80;;;;;;4996786;28;20033;-75
2022/05/08 07:32:29;;;;;;;9.07;6.53;;;19.10;54.30;;;;;;5013901;28;20037;-75
2022/05/08 07:37:38;;;;;;;8.18;5.80;;;19.30;53.60;;;;;;5013702;28;20096;-85
2022/05/08 07:40:04;;;;;;;5.50;4.63;;;19.50;53.40;;;;;;5013537;28;20439;-86
2022/05/08 07:42:30;;;;;;;7.05;5.55;;;19.60;51.90;;;;;;5013781;28;20079;-83
2022/05/08 07:44:55;;;;;;;9.93;6.97;;;19.80;52.80;;;;;;5013853;28;20033;-84
2022/05/08 07:47:21;;;;;;;6.35;5.40;;;19.80;53.10;;;;;;4996013;28;20026;-76
2022/05/08 07:49:46;;;;;;;6.57;5.38;;;20.00;52.80;;;;;;5013519;28;20030;-76
2022/05/08 07:52:12;;;;;;;7.25;5.35;;;20.00;51.00;;;;;;5013448;28;20030;-77
2022/05/08 07:54:38;;;;;;;6.43;4.50;;;20.10;52.60;;;;;;5013201;28;20033;-76
2022/05/08 07:57:03;;;;;;;6.47;4.70;;;20.20;50.50;;;;;;5013387;28;20096;-84
2022/05/08 07:59:29;;;;;;;8.77;5.78;;;20.10;52.20;;;;;;5012196;28;20099;-84
2022/05/08 08:01:54;;;;;;;5.32;4.82;;;20.20;51.80;;;;;;5013466;28;20093;-76
2022/05/08 08:04:20;;;;;;;8.15;4.68;;;20.30;50.60;;;;;;5013482;28;20533;-73
2022/05/08 08:06:46;;;;;;;4.18;3.78;;;20.40;50.40;;;;;;5013432;28;20365;-86
2022/05/08 08:09:12;;;;;;;6.40;3.80;;;20.40;48.00;;;;;;4995737;28;20022;-77
2022/05/08 08:11:42;;;;;;;3.97;3.58;;;20.40;48.60;;;;;;5013296;28;20104;-76
2022/05/08 08:14:07;;;;;;;3.20;2.60;;;20.50;47.50;;;;;;5013442;28;20034;-76
2022/05/08 08:16:33;;;;;;;5.65;3.30;;;20.40;47.00;;;;;;4995683;28;20096;-76
2022/05/08 08:19:00;;;;;;;3.22;2.97;;;20.40;47.80;;;;;;5012119;28;20480;-80
2022/05/08 08:21:25;;;;;;;4.10;2.60;;;20.50;46.50;;;;;;5013425;28;20018;-73
2022/05/08 08:23:51;;;;;;;3.03;2.22;;;20.60;44.80;;;;;;5013791;28;20022;-83
2022/05/08 08:26:17;;;;;;;3.63;2.60;;;20.90;46.50;;;;;;5012191;28;20022;-82
2022/05/08 08:28:43;;;;;;;6.00;3.72;;;21.10;47.50;;;;;;5013331;28;20033;-84
2022/05/08 08:31:10;;;;;;;5.28;3.55;;;21.40;46.70;;;;;;5012187;28;20026;-76
2022/05/08 08:33:40;;;;;;;5.82;3.60;;;21.50;48.40;;;;;;5013261;28;20042;-84
2022/05/08 08:36:09;;;;;;;16.85;4.40;;;21.70;47.20;;;;;;5011926;28;20168;-76
2022/05/08 08:38:35;;;;;;;5.20;3.70;;;21.90;47.10;;;;;;5013087;28;20030;-86
2022/05/08 08:41:04;;;;;;;5.68;3.67;;;22.10;45.70;;;;;;5012954;28;20034;-76
2022/05/08 08:43:31;;;;;;;9.38;6.40;;;22.10;44.50;;;;;;5011548;28;20030;-76
2022/05/08 08:48:50;;;;;;;6.72;2.88;;;22.00;45.40;;;;;;5012977;28;20052;-84
2022/05/08 08:51:16;;;;;;;13.63;4.05;;;22.10;44.10;;;;;;5016061;28;20033;-84
2022/05/08 08:53:41;;;;;;;5.18;3.10;;;21.70;44.20;;;;;;5016704;28;20476;-76
2022/05/08 08:56:07;;;;;;;5.47;3.40;;;21.30;44.50;;;;;;4999200;28;20018;-76
2022/05/08 08:58:35;;;;;;;6.38;3.10;;;21.10;44.40;;;;;;5016738;28;20085;-77
2022/05/08 09:01:00;;;;;;;6.68;2.80;;;21.00;45.00;;;;;;4999220;28;20048;-84
2022/05/08 09:03:27;;;;;;;4.30;2.97;;;21.10;45.20;;;;;;5016773;28;20471;-84
2022/05/08 09:05:57;;;;;;;3.40;2.63;;;21.10;44.40;;;;;;4995405;28;20034;-84
2022/05/08 09:08:30;;;;;;;7.28;3.38;;;21.20;43.40;;;;;;4997507;28;20057;-76
2022/05/08 09:10:58;;;;;;;4.45;3.15;;;21.50;45.00;;;;;;4979557;28;20120;-85
2022/05/08 09:13:25;;;;;;;3.95;2.90;;;21.80;44.20;;;;;;4997055;28;20415;-85
2022/05/08 09:16:07;;;;;;;5.90;3.20;;;22.10;43.00;;;;;;4979451;28;20464;-83
2022/05/08 09:18:48;;;;;;;4.90;3.58;;;22.00;41.10;;;;;;4979501;28;20030;-76
2022/05/08 09:24:13;;;;;;;3.15;2.78;;;21.90;41.90;;;;;;4997233;28;20037;-84
2022/05/08 09:26:39;;;;;;;3.80;2.97;;;21.70;43.50;;;;;;5001690;28;20176;-76
2022/05/08 09:29:07;;;;;;;3.47;3.17;;;21.60;42.70;;;;;;5015006;28;20176;-77
2022/05/08 09:31:42;;;;;;;4.05;2.97;;;21.80;43.90;;;;;;5015029;28;20396;-76
2022/05/08 09:34:08;;;;;;;4.43;2.95;;;22.00;44.20;;;;;;4979591;28;20046;-83
2022/05/08 09:36:34;;;;;;;4.45;3.28;;;21.80;43.60;;;;;;5008500;28;20120;-75
2022/05/08 09:39:00;;;;;;;4.43;3.38;;;21.90;43.60;;;;;;5015021;28;20381;-75
2022/05/08 09:41:30;;;;;;;3.78;2.67;;;21.90;41.50;;;;;;5014587;28;20109;-75
2022/05/08 09:44:11;;;;;;;3.88;2.95;;;22.00;43.40;;;;;;4997572;28;20025;-85
2022/05/08 09:46:43;;;;;;;3.03;2.40;;;22.10;42.20;;;;;;4997142;28;20105;-84
2022/05/08 09:49:19;;;;;;;;;;;22.30;42.90;;;;;;5015044;28;20041;-74
2022/05/08 09:51:46;;;;;;;3.53;2.10;;;22.50;41.00;;;;;;4977329;28;19910;-75
2022/05/08 09:54:13;;;;;;;3.08;2.40;;;22.70;41.00;;;;;;4977507;28;20567;-75
2022/05/08 09:56:40;;;;;;;7.03;2.83;;;22.70;41.20;;;;;;4995233;28;20019;-76
2022/05/08 09:59:07;;;;;;;3.85;2.65;;;22.90;39.60;;;;;;4995334;28;20042;-75
2022/05/08 10:01:33;;;;;;;4.50;2.15;;;22.70;39.30;;;;;;4992988;28;20031;-77
2022/05/08 10:03:59;;;;;;;5.30;2.50;;;22.60;38.70;;;;;;4977661;28;20141;-75
2022/05/08 10:06:28;;;;;;;3.22;2.00;;;22.60;39.00;;;;;;4977535;28;20402;-75
2022/05/08 10:14:04;;;;;;;2.40;2.10;;;22.20;40.50;;;;;;5104465;23;20493;-73
2022/05/08 10:16:50;;;;;;;4.50;2.65;;;22.40;40.00;;;;;;5020980;28;20033;-74
2022/05/08 10:19:21;;;;;;;4.07;2.55;;;22.40;39.20;;;;;;5024560;28;20034;-74
2022/05/08 10:21:56;;;;;;;2.30;2.00;;;22.30;39.50;;;;;;5005664;28;20029;-74
2022/05/08 10:24:47;;;;;;;2.65;2.45;;;22.40;39.50;;;;;;5016345;28;20305;-75
2022/05/08 10:27:18;;;;;;;2.55;2.35;;;22.60;39.00;;;;;;5022549;28;20104;-74
2022/05/08 10:29:50;;;;;;;6.63;2.70;;;22.40;38.80;;;;;;5020209;28;20049;-74
2022/05/08 10:32:28;;;;;;;3.17;2.50;;;22.50;39.60;;;;;;5011648;28;20079;-75
2022/05/08 10:35:09;;;;;;;2.95;2.35;;;22.30;40.40;;;;;;5032402;28;20038;-75
2022/05/08 10:37:38;;;;;;;7.40;2.87;;;22.10;41.20;;;;;;5023342;28;20029;-73
2022/05/08 10:40:25;;;;;;;4.93;2.22;;;21.50;41.50;;;;;;5010538;28;20491;-73
2022/05/08 10:42:55;;;;;;;4.03;2.38;;;21.40;41.80;;;;;;5022755;28;20029;-73
2022/05/08 10:45:33;;;;;;;3.17;2.80;;;21.40;41.20;;;;;;5029641;28;20040;-74
2022/05/08 10:48:09;;;;;;;2.70;2.28;;;21.30;42.10;;;;;;5029926;28;20032;-74
2022/05/08 10:50:37;;;;;;;2.33;2.05;;;21.10;41.30;;;;;;5033953;28;20399;-74
2022/05/08 10:53:03;;;;;;;4.20;2.60;;;20.80;42.00;;;;;;5033309;28;20041;-74
2022/05/08 10:55:29;;;;;;;4.43;2.55;;;21.00;42.30;;;;;;5006001;28;20067;-74
2022/05/08 10:57:56;;;;;;;3.95;2.28;;;21.20;42.30;;;;;;5023463;28;20128;-74
2022/05/08 11:00:22;;;;;;;4.05;2.20;;;21.20;41.50;;;;;;5010812;28;20521;-74
2022/05/08 11:02:56;;;;;;;2.63;2.10;;;21.30;42.10;;;;;;5032458;28;20083;-81
2022/05/08 11:05:25;;;;;;;2.38;2.10;;;21.20;41.00;;;;;;5032914;28;20021;-83
2022/05/08 11:07:56;;;;;;;3.25;2.30;;;21.10;40.40;;;;;;5033253;28;20453;-82
2022/05/08 11:10:25;;;;;;;5.18;2.72;;;21.50;41.10;;;;;;5020338;28;20505;-75
2022/05/08 11:13:05;;;;;;;3.97;1.85;;;21.80;41.30;;;;;;5030241;28;20048;-76
2022/05/08 11:15:31;;;;;;;2.47;2.28;;;22.00;39.10;;;;;;5029348;28;20045;-85
2022/05/08 11:18:16;;;;;;;4.70;2.65;;;22.30;38.80;;;;;;5027715;28;20144;-86
2022/05/08 11:20:48;;;;;;;4.10;2.35;;;22.50;38.50;;;;;;5024372;28;20069;-75
2022/05/08 11:23:16;;;;;;;2.22;1.90;;;22.90;38.90;;;;;;5019691;28;20032;-89
2022/05/08 11:25:46;;;;;;;3.90;2.45;;;23.00;37.90;;;;;;5032963;28;20033;-86
2022/05/08 11:28:21;;;;;;;2.65;2.03;;;22.80;37.80;;;;;;5032618;28;20018;-86
2022/05/08 11:30:48;;;;;;;3.00;2.00;;;22.90;39.00;;;;;;5020488;28;20042;-76
2022/05/08 11:36:04;;;;;;;3.55;2.40;;;22.60;38.60;;;;;;5032439;28;20451;-76
2022/05/08 11:38:46;;;;;;;3.30;2.22;;;22.60;39.60;;;;;;5032798;28;20032;-87
2022/05/08 11:41:17;;;;;;;5.90;2.38;;;22.30;39.30;;;;;;5032236;28;20490;-84
2022/05/08 11:43:43;;;;;;;2.63;2.10;;;22.10;39.70;;;;;;5032712;28;20079;-83
2022/05/08 11:46:15;;;;;;;3.05;2.08;;;22.10;39.90;;;;;;5016018;28;20044;-81
2022/05/08 11:48:42;;;;;;;3.00;2.25;;;22.00;40.20;;;;;;5032413;28;20071;-83
2022/05/08 11:51:09;;;;;;;2.28;2.08;;;21.70;40.20;;;;;;5032009;28;20039;-84
2022/05/08 11:53:45;;;;;;;2.40;2.10;;;21.70;40.40;;;;;;5032355;28;20033;-84
2022/05/08 11:56:33;;;;;;;3.38;2.67;;;21.60;40.90;;;;;;5029305;28;20102;-88
2022/05/08 11:59:04;;;;;;;4.43;2.17;;;21.40;40.90;;;;;;5031633;28;20025;-76
2022/05/08 12:01:34;;;;;;;4.13;2.72;;;21.30;40.70;;;;;;5020611;28;20453;-76
2022/05/08 12:04:26;;;;;;;2.10;1.90;;;21.40;40.30;;;;;;5023364;28;20458;-82
2022/05/08 12:06:56;;;;;;;;;;;21.60;39.90;;;;;;5004695;28;20033;-85
2022/05/08 12:09:22;;;;;;;2.33;2.13;;;21.70;40.40;;;;;;5011180;28;19905;-84
2022/05/08 12:11:48;;;;;;;2.67;2.13;;;21.80;41.90;;;;;;5011183;28;20053;-83
2022/05/08 12:14:13;;;;;;;3.97;3.17;;;21.90;41.80;;;;;;5038227;28;20048;-84
2022/05/08 12:16:39;;;;;;;2.65;2.22;;;21.90;42.00;;;;;;5038625;28;20029;-82
2022/05/08 12:19:11;;;;;;;4.00;2.75;;;21.90;41.60;;;;;;5024549;28;20027;-83
2022/05/08 12:21:39;;;;;;;4.35;2.13;;;21.80;42.40;;;;;;5041597;28;20127;-83
2022/05/08 12:24:17;;;;;;;3.85;2.45;;;21.90;42.00;;;;;;5051105;28;20032;-85
2022/05/08 12:26:43;;;;;;;2.17;2.08;;;22.20;40.90;;;;;;5032044;28;20041;-84
2022/05/08 12:29:24;;;;;;;4.68;1.92;;;22.50;40.20;;;;;;5051535;28;20037;-84
2022/05/08 12:31:51;;;;;;;2.10;1.90;;;22.70;40.60;;;;;;5010982;28;20033;-81
2022/05/08 12:34:21;;;;;;;3.20;1.98;;;22.90;39.40;;;;;;5029719;28;20092;-85
2022/05/08 12:36:48;;;;;;;2.35;2.15;;;22.70;38.00;;;;;;5017819;28;20100;-87
2022/05/08 12:39:16;;;;;;;2.75;2.03;;;22.70;38.10;;;;;;5010795;28;20030;-76
2022/05/08 12:41:41;;;;;;;3.45;2.00;;;22.80;38.00;;;;;;5000164;28;20066;-76
2022/05/08 12:44:07;;;;;;;2.08;1.88;;;23.10;37.60;;;;;;5009842;28;20176;-76
2022/05/08 12:46:34;;;;;;;2.35;2.15;;;22.80;38.20;;;;;;4994696;28;20018;-77
2022/05/08 12:49:03;;;;;;;2.58;2.38;;;22.70;37.20;;;;;;4995251;28;20487;-76
2022/05/08 12:51:34;;;;;;;2.55;2.10;;;22.80;37.80;;;;;;4993436;28;20033;-77
2022/05/08 12:54:02;;;;;;;5.45;2.03;;;22.90;38.20;;;;;;5013574;28;20026;-84
2022/05/08 12:56:32;;;;;;;4.25;2.17;;;23.10;38.50;;;;;;5014714;28;20049;-84
2022/05/08 13:01:44;;;;;;;1.80;1.67;;;23.20;38.80;;;;;;5032663;28;20638;-84
2022/05/08 13:04:10;;;;;;;2.20;1.92;;;23.40;37.40;;;;;;5030745;28;20018;-84
2022/05/08 13:06:36;;;;;;;2.25;2.00;;;23.60;37.60;;;;;;5030503;28;20033;-83
2022/05/08 13:09:04;;;;;;;1.83;1.70;;;23.60;37.20;;;;;;5012543;28;20024;-84
2022/05/08 13:11:29;;;;;;;2.28;2.08;;;23.60;37.00;;;;;;5030244;28;20030;-84
2022/05/08 13:13:55;;;;;;;2.00;1.42;;;22.90;36.60;;;;;;5003811;28;20045;-84